sensor_id;sensor_type;location;lat;lon;timestamp;temperature;humidity
65824;SHT31;52585;47.566;19.056;2022-09-09T00:02:27;21.95;70.62
65824;SHT31;52585;47.566;19.056;2022-09-09T00:07:47;21.87;70.60
65824;SHT31;52585;47.566;19.056;2022-09-09T00:10:17;21.85;70.47
65824;SHT31;52585;47.566;19.056;2022-09-09T00:12:50;21.81;70.32
65824;SHT31;52585;47.566;19.056;2022-09-09T00:15:25;21.78;70.41
65824;SHT31;52585;47.566;19.056;2022-09-09T00:23:16;21.77;70.49
65824;SHT31;52585;47.566;19.056;2022-09-09T00:31:37;21.76;70.43
65824;SHT31;52585;47.566;19.056;2022-09-09T00:34:05;21.75;70.47
65824;SHT31;52585;47.566;19.056;2022-09-09T00:36:41;21.75;70.46
65824;SHT31;52585;47.566;19.056;2022-09-09T00:39:51;21.73;70.50
65824;SHT31;52585;47.566;19.056;2022-09-09T00:42:30;21.71;70.49
65824;SHT31;52585;47.566;19.056;2022-09-09T00:47:50;21.63;70.45
65824;SHT31;52585;47.566;19.056;2022-09-09T00:50:21;21.63;70.59
65824;SHT31;52585;47.566;19.056;2022-09-09T00:55:43;21.59;70.48
65824;SHT31;52585;47.566;19.056;2022-09-09T00:58:24;21.57;70.50
65824;SHT31;52585;47.566;19.056;2022-09-09T01:00:53;21.55;70.59
65824;SHT31;52585;47.566;19.056;2022-09-09T01:03:33;21.54;70.74
65824;SHT31;52585;47.566;19.056;2022-09-09T01:06:11;21.54;70.79
65824;SHT31;52585;47.566;19.056;2022-09-09T01:14:29;21.55;70.80
65824;SHT31;52585;47.566;19.056;2022-09-09T01:16:59;21.55;70.67
65824;SHT31;52585;47.566;19.056;2022-09-09T01:19:37;21.54;70.58
65824;SHT31;52585;47.566;19.056;2022-09-09T01:22:33;21.54;70.65
65824;SHT31;52585;47.566;19.056;2022-09-09T01:28:08;21.51;70.55
65824;SHT31;52585;47.566;19.056;2022-09-09T01:30:38;21.50;70.50
65824;SHT31;52585;47.566;19.056;2022-09-09T01:33:07;21.49;70.53
65824;SHT31;52585;47.566;19.056;2022-09-09T01:38:06;21.44;70.61
65824;SHT31;52585;47.566;19.056;2022-09-09T01:40:32;21.42;70.61
65824;SHT31;52585;47.566;19.056;2022-09-09T01:42:58;21.41;70.57
65824;SHT31;52585;47.566;19.056;2022-09-09T01:45:23;21.39;70.62
65824;SHT31;52585;47.566;19.056;2022-09-09T01:47:50;21.36;70.83
65824;SHT31;52585;47.566;19.056;2022-09-09T01:50:18;21.36;70.83
65824;SHT31;52585;47.566;19.056;2022-09-09T01:52:45;21.36;70.82
65824;SHT31;52585;47.566;19.056;2022-09-09T01:55:13;21.36;70.82
65824;SHT31;52585;47.566;19.056;2022-09-09T01:57:42;21.36;70.81
65824;SHT31;52585;47.566;19.056;2022-09-09T02:00:20;21.36;71.05
65824;SHT31;52585;47.566;19.056;2022-09-09T02:02:52;21.39;71.02
65824;SHT31;52585;47.566;19.056;2022-09-09T02:05:49;21.40;70.97
65824;SHT31;52585;47.566;19.056;2022-09-09T02:08:26;21.42;70.97
65824;SHT31;52585;47.566;19.056;2022-09-09T02:13:34;21.42;70.91
65824;SHT31;52585;47.566;19.056;2022-09-09T02:21:13;21.39;70.81
65824;SHT31;52585;47.566;19.056;2022-09-09T02:23:41;21.37;70.82
65824;SHT31;52585;47.566;19.056;2022-09-09T02:26:08;21.34;70.84
65824;SHT31;52585;47.566;19.056;2022-09-09T02:28:38;21.33;70.85
65824;SHT31;52585;47.566;19.056;2022-09-09T02:31:05;21.32;70.90
65824;SHT31;52585;47.566;19.056;2022-09-09T02:33:33;21.30;70.89
65824;SHT31;52585;47.566;19.056;2022-09-09T02:36:03;21.27;70.94
65824;SHT31;52585;47.566;19.056;2022-09-09T02:38:34;21.25;71.05
65824;SHT31;52585;47.566;19.056;2022-09-09T02:41:04;21.24;71.13
65824;SHT31;52585;47.566;19.056;2022-09-09T02:43:32;21.25;71.12
65824;SHT31;52585;47.566;19.056;2022-09-09T02:51:34;21.25;71.25
65824;SHT31;52585;47.566;19.056;2022-09-09T02:54:35;21.26;71.22
65824;SHT31;52585;47.566;19.056;2022-09-09T02:57:17;21.27;71.18
65824;SHT31;52585;47.566;19.056;2022-09-09T02:59:47;21.26;71.12
65824;SHT31;52585;47.566;19.056;2022-09-09T03:02:13;21.25;71.05
65824;SHT31;52585;47.566;19.056;2022-09-09T03:04:38;21.25;71.05
65824;SHT31;52585;47.566;19.056;2022-09-09T03:07:05;21.24;71.01
65824;SHT31;52585;47.566;19.056;2022-09-09T03:09:31;21.23;70.94
65824;SHT31;52585;47.566;19.056;2022-09-09T03:11:57;21.20;70.92
65824;SHT31;52585;47.566;19.056;2022-09-09T03:14:24;21.18;70.91
65824;SHT31;52585;47.566;19.056;2022-09-09T03:16:53;21.15;70.83
65824;SHT31;52585;47.566;19.056;2022-09-09T03:19:19;21.14;70.89
65824;SHT31;52585;47.566;19.056;2022-09-09T03:21:45;21.10;70.89
65824;SHT31;52585;47.566;19.056;2022-09-09T03:24:12;21.08;70.90
65824;SHT31;52585;47.566;19.056;2022-09-09T03:26:39;21.05;70.92
65824;SHT31;52585;47.566;19.056;2022-09-09T03:29:06;21.03;71.01
65824;SHT31;52585;47.566;19.056;2022-09-09T03:31:32;21.02;71.01
65824;SHT31;52585;47.566;19.056;2022-09-09T03:33:59;21.01;70.96
65824;SHT31;52585;47.566;19.056;2022-09-09T03:36:25;21.01;70.99
65824;SHT31;52585;47.566;19.056;2022-09-09T03:38:52;21.01;71.01
65824;SHT31;52585;47.566;19.056;2022-09-09T03:41:19;21.01;70.98
65824;SHT31;52585;47.566;19.056;2022-09-09T03:43:51;21.01;70.93
65824;SHT31;52585;47.566;19.056;2022-09-09T03:46:21;21.02;70.88
65824;SHT31;52585;47.566;19.056;2022-09-09T03:48:48;21.02;70.81
65824;SHT31;52585;47.566;19.056;2022-09-09T03:51:14;21.01;70.80
65824;SHT31;52585;47.566;19.056;2022-09-09T03:53:41;21.01;70.74
65824;SHT31;52585;47.566;19.056;2022-09-09T03:56:08;20.99;70.64
65824;SHT31;52585;47.566;19.056;2022-09-09T03:58:35;20.99;70.60
65824;SHT31;52585;47.566;19.056;2022-09-09T04:01:09;20.97;70.61
65824;SHT31;52585;47.566;19.056;2022-09-09T04:03:40;20.95;70.56
65824;SHT31;52585;47.566;19.056;2022-09-09T04:06:06;20.92;70.61
65824;SHT31;52585;47.566;19.056;2022-09-09T04:08:33;20.88;70.68
65824;SHT31;52585;47.566;19.056;2022-09-09T04:11:00;20.85;70.69
65824;SHT31;52585;47.566;19.056;2022-09-09T04:13:26;20.84;70.69
65824;SHT31;52585;47.566;19.056;2022-09-09T04:15:56;20.81;70.70
65824;SHT31;52585;47.566;19.056;2022-09-09T04:18:24;20.79;70.75
65824;SHT31;52585;47.566;19.056;2022-09-09T04:20:51;20.78;70.83
65824;SHT31;52585;47.566;19.056;2022-09-09T04:23:17;20.77;70.93
65824;SHT31;52585;47.566;19.056;2022-09-09T04:25:45;20.77;70.90
65824;SHT31;52585;47.566;19.056;2022-09-09T04:28:12;20.78;70.90
65824;SHT31;52585;47.566;19.056;2022-09-09T04:30:39;20.78;70.91
65824;SHT31;52585;47.566;19.056;2022-09-09T04:33:05;20.78;71.00
65824;SHT31;52585;47.566;19.056;2022-09-09T04:35:31;20.80;71.01
65824;SHT31;52585;47.566;19.056;2022-09-09T04:37:58;20.80;70.99
65824;SHT31;52585;47.566;19.056;2022-09-09T04:40:23;20.80;70.90
65824;SHT31;52585;47.566;19.056;2022-09-09T04:42:50;20.80;70.90
65824;SHT31;52585;47.566;19.056;2022-09-09T04:45:16;20.78;70.88
65824;SHT31;52585;47.566;19.056;2022-09-09T04:47:43;20.78;70.86
65824;SHT31;52585;47.566;19.056;2022-09-09T04:50:08;20.76;70.80
65824;SHT31;52585;47.566;19.056;2022-09-09T04:52:34;20.75;70.73
65824;SHT31;52585;47.566;19.056;2022-09-09T04:55:01;20.73;70.76
65824;SHT31;52585;47.566;19.056;2022-09-09T04:57:26;20.72;70.80
65824;SHT31;52585;47.566;19.056;2022-09-09T04:59:52;20.69;70.82
65824;SHT31;52585;47.566;19.056;2022-09-09T05:02:17;20.68;70.84
65824;SHT31;52585;47.566;19.056;2022-09-09T05:04:43;20.66;70.83
65824;SHT31;52585;47.566;19.056;2022-09-09T05:07:08;20.64;70.99
65824;SHT31;52585;47.566;19.056;2022-09-09T05:09:34;20.62;71.09
65824;SHT31;52585;47.566;19.056;2022-09-09T05:11:59;20.62;71.21
65824;SHT31;52585;47.566;19.056;2022-09-09T05:14:25;20.61;71.20
65824;SHT31;52585;47.566;19.056;2022-09-09T05:16:51;20.62;71.24
65824;SHT31;52585;47.566;19.056;2022-09-09T05:19:17;20.64;71.29
65824;SHT31;52585;47.566;19.056;2022-09-09T05:21:44;20.65;71.26
65824;SHT31;52585;47.566;19.056;2022-09-09T05:24:10;20.65;71.22
65824;SHT31;52585;47.566;19.056;2022-09-09T05:26:36;20.67;71.33
65824;SHT31;52585;47.566;19.056;2022-09-09T05:29:01;20.66;71.29
65824;SHT31;52585;47.566;19.056;2022-09-09T05:31:29;20.68;71.28
65824;SHT31;52585;47.566;19.056;2022-09-09T05:33:55;20.69;71.20
65824;SHT31;52585;47.566;19.056;2022-09-09T05:36:21;20.69;71.18
65824;SHT31;52585;47.566;19.056;2022-09-09T05:38:47;20.68;71.33
65824;SHT31;52585;47.566;19.056;2022-09-09T05:41:14;20.69;71.27
65824;SHT31;52585;47.566;19.056;2022-09-09T05:43:41;20.69;71.37
65824;SHT31;52585;47.566;19.056;2022-09-09T05:46:13;20.69;71.49
65824;SHT31;52585;47.566;19.056;2022-09-09T05:48:44;20.68;71.36
65824;SHT31;52585;47.566;19.056;2022-09-09T05:51:14;20.67;71.41
65824;SHT31;52585;47.566;19.056;2022-09-09T05:53:42;20.66;71.43
65824;SHT31;52585;47.566;19.056;2022-09-09T05:56:09;20.67;71.52
65824;SHT31;52585;47.566;19.056;2022-09-09T05:58:39;20.65;71.59
65824;SHT31;52585;47.566;19.056;2022-09-09T06:01:22;20.65;71.80
65824;SHT31;52585;47.566;19.056;2022-09-09T06:03:48;20.66;71.80
65824;SHT31;52585;47.566;19.056;2022-09-09T06:06:33;20.67;71.76
65824;SHT31;52585;47.566;19.056;2022-09-09T06:09:02;20.69;71.93
65824;SHT31;52585;47.566;19.056;2022-09-09T06:11:29;20.72;72.16
65824;SHT31;52585;47.566;19.056;2022-09-09T06:13:56;20.75;72.08
65824;SHT31;52585;47.566;19.056;2022-09-09T06:16:23;20.77;72.00
65824;SHT31;52585;47.566;19.056;2022-09-09T06:18:49;20.80;71.93
65824;SHT31;52585;47.566;19.056;2022-09-09T06:21:25;20.84;71.79
65824;SHT31;52585;47.566;19.056;2022-09-09T06:23:53;20.86;71.86
65824;SHT31;52585;47.566;19.056;2022-09-09T06:26:22;20.87;71.91
65824;SHT31;52585;47.566;19.056;2022-09-09T06:28:51;20.88;71.78
65824;SHT31;52585;47.566;19.056;2022-09-09T06:31:19;20.90;71.63
65824;SHT31;52585;47.566;19.056;2022-09-09T06:33:49;20.92;71.79
65824;SHT31;52585;47.566;19.056;2022-09-09T06:36:17;20.93;71.97
65824;SHT31;52585;47.566;19.056;2022-09-09T06:38:44;20.94;72.01
65824;SHT31;52585;47.566;19.056;2022-09-09T06:41:11;20.94;71.92
65824;SHT31;52585;47.566;19.056;2022-09-09T06:43:39;20.94;71.88
65824;SHT31;52585;47.566;19.056;2022-09-09T06:46:15;20.95;71.80
65824;SHT31;52585;47.566;19.056;2022-09-09T06:48:44;20.96;71.94
65824;SHT31;52585;47.566;19.056;2022-09-09T06:51:12;20.95;71.85
65824;SHT31;52585;47.566;19.056;2022-09-09T06:53:41;20.95;71.89
65824;SHT31;52585;47.566;19.056;2022-09-09T06:56:21;20.97;72.08
65824;SHT31;52585;47.566;19.056;2022-09-09T06:58:52;20.99;72.15
65824;SHT31;52585;47.566;19.056;2022-09-09T07:01:23;21.01;72.06
65824;SHT31;52585;47.566;19.056;2022-09-09T07:03:52;21.04;72.31
65824;SHT31;52585;47.566;19.056;2022-09-09T07:06:29;21.08;71.89
65824;SHT31;52585;47.566;19.056;2022-09-09T07:09:13;21.11;71.87
65824;SHT31;52585;47.566;19.056;2022-09-09T07:11:42;21.14;71.85
65824;SHT31;52585;47.566;19.056;2022-09-09T07:14:10;21.18;71.79
65824;SHT31;52585;47.566;19.056;2022-09-09T07:16:39;21.20;71.62
65824;SHT31;52585;47.566;19.056;2022-09-09T07:19:06;21.21;71.53
65824;SHT31;52585;47.566;19.056;2022-09-09T07:21:31;21.24;71.51
65824;SHT31;52585;47.566;19.056;2022-09-09T07:23:58;21.24;71.59
65824;SHT31;52585;47.566;19.056;2022-09-09T07:26:28;21.25;71.62
65824;SHT31;52585;47.566;19.056;2022-09-09T07:28:55;21.27;71.80
65824;SHT31;52585;47.566;19.056;2022-09-09T07:31:29;21.29;71.89
65824;SHT31;52585;47.566;19.056;2022-09-09T07:33:56;21.30;71.83
65824;SHT31;52585;47.566;19.056;2022-09-09T07:36:29;21.31;71.74
65824;SHT31;52585;47.566;19.056;2022-09-09T07:38:57;21.33;71.83
65824;SHT31;52585;47.566;19.056;2022-09-09T07:41:25;21.35;71.92
65824;SHT31;52585;47.566;19.056;2022-09-09T07:43:52;21.36;71.88
65824;SHT31;52585;47.566;19.056;2022-09-09T07:46:19;21.36;71.49
65824;SHT31;52585;47.566;19.056;2022-09-09T07:48:46;21.38;71.77
65824;SHT31;52585;47.566;19.056;2022-09-09T07:51:16;21.42;71.86
65824;SHT31;52585;47.566;19.056;2022-09-09T07:53:45;21.46;71.82
65824;SHT31;52585;47.566;19.056;2022-09-09T07:56:12;21.49;71.79
65824;SHT31;52585;47.566;19.056;2022-09-09T07:58:42;21.53;71.65
65824;SHT31;52585;47.566;19.056;2022-09-09T08:01:14;21.57;71.35
65824;SHT31;52585;47.566;19.056;2022-09-09T08:03:42;21.61;70.83
65824;SHT31;52585;47.566;19.056;2022-09-09T08:06:09;21.65;70.68
65824;SHT31;52585;47.566;19.056;2022-09-09T08:08:37;21.68;70.24
65824;SHT31;52585;47.566;19.056;2022-09-09T08:11:13;21.69;70.30
65824;SHT31;52585;47.566;19.056;2022-09-09T08:13:41;21.73;70.49
65824;SHT31;52585;47.566;19.056;2022-09-09T08:16:09;21.77;70.63
65824;SHT31;52585;47.566;19.056;2022-09-09T08:18:48;21.78;70.43
65824;SHT31;52585;47.566;19.056;2022-09-09T08:21:19;21.81;70.49
65824;SHT31;52585;47.566;19.056;2022-09-09T08:23:47;21.84;70.60
65824;SHT31;52585;47.566;19.056;2022-09-09T08:26:16;21.87;70.26
65824;SHT31;52585;47.566;19.056;2022-09-09T08:28:46;21.89;70.29
65824;SHT31;52585;47.566;19.056;2022-09-09T08:31:15;21.91;70.14
65824;SHT31;52585;47.566;19.056;2022-09-09T08:33:43;21.91;69.73
65824;SHT31;52585;47.566;19.056;2022-09-09T08:36:12;21.94;69.57
65824;SHT31;52585;47.566;19.056;2022-09-09T08:38:42;21.95;69.55
65824;SHT31;52585;47.566;19.056;2022-09-09T08:41:15;21.97;69.66
65824;SHT31;52585;47.566;19.056;2022-09-09T08:43:43;21.99;69.67
65824;SHT31;52585;47.566;19.056;2022-09-09T08:46:21;22.01;69.52
65824;SHT31;52585;47.566;19.056;2022-09-09T08:49:04;22.03;69.14
65824;SHT31;52585;47.566;19.056;2022-09-09T08:51:52;22.05;69.30
65824;SHT31;52585;47.566;19.056;2022-09-09T08:54:21;22.06;69.47
65824;SHT31;52585;47.566;19.056;2022-09-09T08:56:47;22.08;69.50
65824;SHT31;52585;47.566;19.056;2022-09-09T08:59:15;22.10;69.67
65824;SHT31;52585;47.566;19.056;2022-09-09T09:04:43;22.18;69.97
65824;SHT31;52585;47.566;19.056;2022-09-09T09:10:00;22.30;70.05
65824;SHT31;52585;47.566;19.056;2022-09-09T09:12:40;22.37;70.11
65824;SHT31;52585;47.566;19.056;2022-09-09T09:15:16;22.44;69.77
65824;SHT31;52585;47.566;19.056;2022-09-09T09:17:44;22.49;68.66
65824;SHT31;52585;47.566;19.056;2022-09-09T09:20:16;22.53;69.02
65824;SHT31;52585;47.566;19.056;2022-09-09T09:22:50;22.56;69.23
65824;SHT31;52585;47.566;19.056;2022-09-09T09:25:19;22.60;69.29
65824;SHT31;52585;47.566;19.056;2022-09-09T09:30:39;22.66;68.58
65824;SHT31;52585;47.566;19.056;2022-09-09T09:33:18;22.67;68.47
65824;SHT31;52585;47.566;19.056;2022-09-09T09:35:49;22.70;68.19
65824;SHT31;52585;47.566;19.056;2022-09-09T09:40:54;22.74;68.27
65824;SHT31;52585;47.566;19.056;2022-09-09T09:45:55;22.79;68.51
65824;SHT31;52585;47.566;19.056;2022-09-09T09:48:25;22.80;67.56
65824;SHT31;52585;47.566;19.056;2022-09-09T09:50:54;22.82;67.70
65824;SHT31;52585;47.566;19.056;2022-09-09T09:53:36;22.83;67.87
65824;SHT31;52585;47.566;19.056;2022-09-09T09:56:05;22.84;67.98
65824;SHT31;52585;47.566;19.056;2022-09-09T09:58:36;22.84;67.94
65824;SHT31;52585;47.566;19.056;2022-09-09T10:03:53;22.87;67.57
65824;SHT31;52585;47.566;19.056;2022-09-09T10:06:33;22.89;67.33
65824;SHT31;52585;47.566;19.056;2022-09-09T10:09:00;22.92;67.24
65824;SHT31;52585;47.566;19.056;2022-09-09T10:11:40;22.94;67.17
65824;SHT31;52585;47.566;19.056;2022-09-09T10:19:43;23.06;66.66
65824;SHT31;52585;47.566;19.056;2022-09-09T10:22:32;23.10;65.58
65824;SHT31;52585;47.566;19.056;2022-09-09T10:36:52;23.32;64.79
65824;SHT31;52585;47.566;19.056;2022-09-09T10:39:29;23.34;64.91
65824;SHT31;52585;47.566;19.056;2022-09-09T10:42:06;23.35;64.99
65824;SHT31;52585;47.566;19.056;2022-09-09T10:47:25;23.38;64.52
65824;SHT31;52585;47.566;19.056;2022-09-09T10:52:58;23.48;67.02
65824;SHT31;52585;47.566;19.056;2022-09-09T10:55:40;23.50;68.03
65824;SHT31;52585;47.566;19.056;2022-09-09T10:58:13;23.51;67.11
65824;SHT31;52585;47.566;19.056;2022-09-09T11:00:47;23.54;66.37
65824;SHT31;52585;47.566;19.056;2022-09-09T11:03:20;23.58;65.84
65824;SHT31;52585;47.566;19.056;2022-09-09T11:05:50;23.60;64.80
65824;SHT31;52585;47.566;19.056;2022-09-09T11:08:25;23.59;64.33
65824;SHT31;52585;47.566;19.056;2022-09-09T11:11:02;23.60;64.42
65824;SHT31;52585;47.566;19.056;2022-09-09T11:18:48;23.63;64.17
65824;SHT31;52585;47.566;19.056;2022-09-09T11:21:31;23.64;64.36
65824;SHT31;52585;47.566;19.056;2022-09-09T11:24:04;23.63;64.38
65824;SHT31;52585;47.566;19.056;2022-09-09T11:26:41;23.67;63.55
65824;SHT31;52585;47.566;19.056;2022-09-09T11:34:56;23.71;62.24
65824;SHT31;52585;47.566;19.056;2022-09-09T11:40:18;23.71;61.32
65824;SHT31;52585;47.566;19.056;2022-09-09T11:42:46;23.72;62.13
65824;SHT31;52585;47.566;19.056;2022-09-09T11:45:19;23.73;62.20
65824;SHT31;52585;47.566;19.056;2022-09-09T11:47:52;23.75;62.42
65824;SHT31;52585;47.566;19.056;2022-09-09T11:50:27;23.75;62.76
65824;SHT31;52585;47.566;19.056;2022-09-09T11:55:38;23.77;61.78
65824;SHT31;52585;47.566;19.056;2022-09-09T12:00:45;23.73;60.62
65824;SHT31;52585;47.566;19.056;2022-09-09T12:06:28;23.76;61.02
65824;SHT31;52585;47.566;19.056;2022-09-09T12:08:58;23.75;61.11
65824;SHT31;52585;47.566;19.056;2022-09-09T12:11:46;23.76;61.22
65824;SHT31;52585;47.566;19.056;2022-09-09T12:17:17;23.76;59.87
65824;SHT31;52585;47.566;19.056;2022-09-09T12:19:45;23.76;59.07
65824;SHT31;52585;47.566;19.056;2022-09-09T12:24:46;23.76;60.09
65824;SHT31;52585;47.566;19.056;2022-09-09T12:27:28;23.75;59.60
65824;SHT31;52585;47.566;19.056;2022-09-09T12:30:09;23.75;58.55
65824;SHT31;52585;47.566;19.056;2022-09-09T12:32:37;23.75;58.43
65824;SHT31;52585;47.566;19.056;2022-09-09T12:35:04;23.74;57.95
65824;SHT31;52585;47.566;19.056;2022-09-09T12:37:35;23.73;58.33
65824;SHT31;52585;47.566;19.056;2022-09-09T12:42:45;23.72;58.80
65824;SHT31;52585;47.566;19.056;2022-09-09T12:50:22;23.71;58.83
65824;SHT31;52585;47.566;19.056;2022-09-09T12:52:53;23.73;58.82
65824;SHT31;52585;47.566;19.056;2022-09-09T12:55:30;23.73;58.38
65824;SHT31;52585;47.566;19.056;2022-09-09T12:57:58;23.73;58.20
65824;SHT31;52585;47.566;19.056;2022-09-09T13:00:26;23.73;57.65
65824;SHT31;52585;47.566;19.056;2022-09-09T13:02:57;23.74;58.20
65824;SHT31;52585;47.566;19.056;2022-09-09T13:05:27;23.75;58.25
65824;SHT31;52585;47.566;19.056;2022-09-09T13:08:02;23.74;58.08
65824;SHT31;52585;47.566;19.056;2022-09-09T13:10:31;23.75;58.34
65824;SHT31;52585;47.566;19.056;2022-09-09T13:12:59;23.76;58.08
65824;SHT31;52585;47.566;19.056;2022-09-09T13:15:26;23.76;57.17
65824;SHT31;52585;47.566;19.056;2022-09-09T13:17:55;23.76;56.95
65824;SHT31;52585;47.566;19.056;2022-09-09T13:20:23;23.79;57.35
65824;SHT31;52585;47.566;19.056;2022-09-09T13:22:50;23.80;57.42
65824;SHT31;52585;47.566;19.056;2022-09-09T13:27:56;23.78;56.78
65824;SHT31;52585;47.566;19.056;2022-09-09T13:30:42;23.76;56.36
65824;SHT31;52585;47.566;19.056;2022-09-09T13:35:34;23.76;56.11
65824;SHT31;52585;47.566;19.056;2022-09-09T13:38:13;23.77;55.70
65824;SHT31;52585;47.566;19.056;2022-09-09T13:40:40;23.77;55.95
65824;SHT31;52585;47.566;19.056;2022-09-09T13:43:19;23.78;55.82
65824;SHT31;52585;47.566;19.056;2022-09-09T13:45:58;23.80;55.79
65824;SHT31;52585;47.566;19.056;2022-09-09T13:48:26;23.80;55.81
65824;SHT31;52585;47.566;19.056;2022-09-09T13:50:59;23.81;56.52
65824;SHT31;52585;47.566;19.056;2022-09-09T13:53:31;23.81;57.05
65824;SHT31;52585;47.566;19.056;2022-09-09T13:55:58;23.81;57.40
65824;SHT31;52585;47.566;19.056;2022-09-09T13:58:24;23.81;57.54
65824;SHT31;52585;47.566;19.056;2022-09-09T14:00:51;23.82;57.23
65824;SHT31;52585;47.566;19.056;2022-09-09T14:03:18;23.82;57.35
65824;SHT31;52585;47.566;19.056;2022-09-09T14:05:44;23.81;56.92
65824;SHT31;52585;47.566;19.056;2022-09-09T14:08:15;23.82;56.60
65824;SHT31;52585;47.566;19.056;2022-09-09T14:10:46;23.84;56.43
65824;SHT31;52585;47.566;19.056;2022-09-09T14:13:12;23.86;56.17
65824;SHT31;52585;47.566;19.056;2022-09-09T14:15:37;23.88;56.16
65824;SHT31;52585;47.566;19.056;2022-09-09T14:18:03;23.90;55.84
65824;SHT31;52585;47.566;19.056;2022-09-09T14:20:29;23.91;55.83
65824;SHT31;52585;47.566;19.056;2022-09-09T14:22:54;23.92;56.01
65824;SHT31;52585;47.566;19.056;2022-09-09T14:25:22;23.92;55.62
65824;SHT31;52585;47.566;19.056;2022-09-09T14:27:48;23.91;55.90
65824;SHT31;52585;47.566;19.056;2022-09-09T14:30:14;23.91;55.70
65824;SHT31;52585;47.566;19.056;2022-09-09T14:32:39;23.89;56.10
65824;SHT31;52585;47.566;19.056;2022-09-09T14:35:05;23.88;56.30
65824;SHT31;52585;47.566;19.056;2022-09-09T14:37:32;23.87;56.48
65824;SHT31;52585;47.566;19.056;2022-09-09T14:39:57;23.86;56.74
65824;SHT31;52585;47.566;19.056;2022-09-09T14:42:23;23.86;56.73
65824;SHT31;52585;47.566;19.056;2022-09-09T14:44:48;23.86;57.06
65824;SHT31;52585;47.566;19.056;2022-09-09T14:47:14;23.85;57.17
65824;SHT31;52585;47.566;19.056;2022-09-09T14:49:39;23.84;57.12
65824;SHT31;52585;47.566;19.056;2022-09-09T14:52:05;23.85;56.79
65824;SHT31;52585;47.566;19.056;2022-09-09T14:54:31;23.84;56.90
65824;SHT31;52585;47.566;19.056;2022-09-09T14:56:57;23.85;56.92
65824;SHT31;52585;47.566;19.056;2022-09-09T14:59:23;23.85;57.13
65824;SHT31;52585;47.566;19.056;2022-09-09T15:01:48;23.84;57.16
65824;SHT31;52585;47.566;19.056;2022-09-09T15:04:14;23.83;57.03
65824;SHT31;52585;47.566;19.056;2022-09-09T15:06:39;23.83;57.00
65824;SHT31;52585;47.566;19.056;2022-09-09T15:09:07;23.82;56.87
65824;SHT31;52585;47.566;19.056;2022-09-09T15:11:35;23.82;56.55
65824;SHT31;52585;47.566;19.056;2022-09-09T15:14:03;23.81;56.16
65824;SHT31;52585;47.566;19.056;2022-09-09T15:16:30;23.83;56.29
65824;SHT31;52585;47.566;19.056;2022-09-09T15:18:57;23.83;56.06
65824;SHT31;52585;47.566;19.056;2022-09-09T15:21:24;23.83;56.44
65824;SHT31;52585;47.566;19.056;2022-09-09T15:23:51;23.83;56.64
65824;SHT31;52585;47.566;19.056;2022-09-09T15:26:17;23.85;56.75
65824;SHT31;52585;47.566;19.056;2022-09-09T15:28:44;23.86;56.93
65824;SHT31;52585;47.566;19.056;2022-09-09T15:31:11;23.87;57.02
65824;SHT31;52585;47.566;19.056;2022-09-09T15:34:00;23.88;56.90
65824;SHT31;52585;47.566;19.056;2022-09-09T15:36:28;23.90;56.30
65824;SHT31;52585;47.566;19.056;2022-09-09T15:38:57;23.91;56.26
65824;SHT31;52585;47.566;19.056;2022-09-09T15:41:23;23.92;56.00
65824;SHT31;52585;47.566;19.056;2022-09-09T15:43:53;23.92;56.24
65824;SHT31;52585;47.566;19.056;2022-09-09T15:48:53;23.95;56.04
65824;SHT31;52585;47.566;19.056;2022-09-09T15:51:20;23.95;56.01
65824;SHT31;52585;47.566;19.056;2022-09-09T15:53:48;23.95;55.56
65824;SHT31;52585;47.566;19.056;2022-09-09T15:56:19;23.96;55.93
65824;SHT31;52585;47.566;19.056;2022-09-09T15:58:44;23.96;55.80
65824;SHT31;52585;47.566;19.056;2022-09-09T16:01:10;23.95;55.89
65824;SHT31;52585;47.566;19.056;2022-09-09T16:03:40;23.94;56.25
65824;SHT31;52585;47.566;19.056;2022-09-09T16:06:07;23.94;56.55
65824;SHT31;52585;47.566;19.056;2022-09-09T16:08:35;23.92;56.69
65824;SHT31;52585;47.566;19.056;2022-09-09T16:13:38;23.91;56.92
65824;SHT31;52585;47.566;19.056;2022-09-09T16:16:05;23.90;57.13
65824;SHT31;52585;47.566;19.056;2022-09-09T16:18:38;23.88;57.32
65824;SHT31;52585;47.566;19.056;2022-09-09T16:21:05;23.88;57.52
65824;SHT31;52585;47.566;19.056;2022-09-09T16:23:33;23.87;57.69
65824;SHT31;52585;47.566;19.056;2022-09-09T16:25:59;23.86;57.72
65824;SHT31;52585;47.566;19.056;2022-09-09T16:28:24;23.85;57.81
65824;SHT31;52585;47.566;19.056;2022-09-09T16:30:50;23.84;57.92
65824;SHT31;52585;47.566;19.056;2022-09-09T16:33:16;23.84;58.04
65824;SHT31;52585;47.566;19.056;2022-09-09T16:35:42;23.83;58.14
65824;SHT31;52585;47.566;19.056;2022-09-09T16:38:09;23.83;58.24
65824;SHT31;52585;47.566;19.056;2022-09-09T16:40:35;23.83;58.34
65824;SHT31;52585;47.566;19.056;2022-09-09T16:43:02;23.83;58.45
65824;SHT31;52585;47.566;19.056;2022-09-09T16:45:28;23.82;58.48
65824;SHT31;52585;47.566;19.056;2022-09-09T16:47:55;23.82;58.48
65824;SHT31;52585;47.566;19.056;2022-09-09T16:50:21;23.83;58.52
65824;SHT31;52585;47.566;19.056;2022-09-09T16:52:47;23.83;58.52
65824;SHT31;52585;47.566;19.056;2022-09-09T16:55:12;23.83;58.68
65824;SHT31;52585;47.566;19.056;2022-09-09T16:57:38;23.83;58.82
65824;SHT31;52585;47.566;19.056;2022-09-09T17:00:04;23.82;58.96
65824;SHT31;52585;47.566;19.056;2022-09-09T17:02:31;23.80;59.01
65824;SHT31;52585;47.566;19.056;2022-09-09T17:04:57;23.78;59.09
65824;SHT31;52585;47.566;19.056;2022-09-09T17:07:22;23.76;59.31
65824;SHT31;52585;47.566;19.056;2022-09-09T17:09:48;23.76;59.51
65824;SHT31;52585;47.566;19.056;2022-09-09T17:12:14;23.75;59.65
65824;SHT31;52585;47.566;19.056;2022-09-09T17:14:41;23.74;59.62
65824;SHT31;52585;47.566;19.056;2022-09-09T17:17:07;23.72;59.76
65824;SHT31;52585;47.566;19.056;2022-09-09T17:19:32;23.72;59.89
65824;SHT31;52585;47.566;19.056;2022-09-09T17:21:58;23.70;60.16
65824;SHT31;52585;47.566;19.056;2022-09-09T17:24:25;23.69;60.31
65824;SHT31;52585;47.566;19.056;2022-09-09T17:26:54;23.67;60.52
65824;SHT31;52585;47.566;19.056;2022-09-09T17:29:20;23.66;60.65
65824;SHT31;52585;47.566;19.056;2022-09-09T17:31:46;23.64;60.78
65824;SHT31;52585;47.566;19.056;2022-09-09T17:34:12;23.64;60.90
65824;SHT31;52585;47.566;19.056;2022-09-09T17:36:38;23.63;61.02
65824;SHT31;52585;47.566;19.056;2022-09-09T17:39:04;23.61;61.11
65824;SHT31;52585;47.566;19.056;2022-09-09T17:41:35;23.59;61.00